sensor_id;sensor_type;location;lat;lon;timestamp;P1;durP1;ratioP1;P2;durP2;ratioP2
67819;SDS011;54618;52.018;5.576;2024-01-15T00:01:59;1.95;;;0.70;;
67819;SDS011;54618;52.018;5.576;2024-01-15T00:04:24;5.13;;;0.98;;
67819;SDS011;54618;52.018;5.576;2024-01-15T00:06:50;5.13;;;0.90;;
67819;SDS011;54618;52.018;5.576;2024-01-15T00:09:16;8.80;;;0.70;;
67819;SDS011;54618;52.018;5.576;2024-01-15T00:11:42;4.15;;;0.80;;
67819;SDS011;54618;52.018;5.576;2024-01-15T00:14:08;5.45;;;1.02;;
67819;SDS011;54618;52.018;5.576;2024-01-15T00:16:33;7.82;;;0.90;;
67819;SDS011;54618;52.018;5.576;2024-01-15T00:18:59;10.02;;;0.93;;
67819;SDS011;54618;52.018;5.576;2024-01-15T00:21:25;5.18;;;0.85;;
67819;SDS011;54618;52.018;5.576;2024-01-15T00:23:51;5.10;;;0.85;;
67819;SDS011;54618;52.018;5.576;2024-01-15T00:26:17;4.47;;;0.68;;
67819;SDS011;54618;52.018;5.576;2024-01-15T00:28:42;8.18;;;0.82;;
67819;SDS011;54618;52.018;5.576;2024-01-15T00:31:08;3.25;;;0.68;;
67819;SDS011;54618;52.018;5.576;2024-01-15T00:33:34;10.15;;;0.80;;
67819;SDS011;54618;52.018;5.576;2024-01-15T00:36:00;4.68;;;0.60;;
67819;SDS011;54618;52.018;5.576;2024-01-15T00:38:25;4.00;;;1.20;;
67819;SDS011;54618;52.018;5.576;2024-01-15T00:40:51;4.30;;;0.60;;
67819;SDS011;54618;52.018;5.576;2024-01-15T00:43:17;6.22;;;0.70;;
67819;SDS011;54618;52.018;5.576;2024-01-15T00:45:44;4.38;;;0.65;;
67819;SDS011;54618;52.018;5.576;2024-01-15T00:48:10;1.52;;;0.52;;
67819;SDS011;54618;52.018;5.576;2024-01-15T00:50:36;4.82;;;0.73;;
67819;SDS011;54618;52.018;5.576;2024-01-15T00:53:01;6.07;;;0.70;;
67819;SDS011;54618;52.018;5.576;2024-01-15T00:55:28;4.47;;;0.80;;
67819;SDS011;54618;52.018;5.576;2024-01-15T00:57:54;5.05;;;0.60;;
67819;SDS011;54618;52.018;5.576;2024-01-15T01:00:20;7.63;;;0.80;;
67819;SDS011;54618;52.018;5.576;2024-01-15T01:02:46;4.95;;;0.68;;
67819;SDS011;54618;52.018;5.576;2024-01-15T01:05:11;5.10;;;0.90;;
67819;SDS011;54618;52.018;5.576;2024-01-15T01:07:37;4.65;;;0.75;;
67819;SDS011;54618;52.018;5.576;2024-01-15T01:10:03;12.57;;;0.95;;
67819;SDS011;54618;52.018;5.576;2024-01-15T01:12:29;9.18;;;1.17;;
67819;SDS011;54618;52.018;5.576;2024-01-15T01:14:55;5.63;;;1.00;;
67819;SDS011;54618;52.018;5.576;2024-01-15T01:17:21;5.47;;;0.68;;
67819;SDS011;54618;52.018;5.576;2024-01-15T01:19:47;8.25;;;1.05;;
67819;SDS011;54618;52.018;5.576;2024-01-15T01:22:12;4.93;;;0.70;;
67819;SDS011;54618;52.018;5.576;2024-01-15T01:24:38;6.07;;;0.88;;
67819;SDS011;54618;52.018;5.576;2024-01-15T01:27:04;1.45;;;0.57;;
67819;SDS011;54618;52.018;5.576;2024-01-15T01:29:29;3.13;;;0.70;;
67819;SDS011;54618;52.018;5.576;2024-01-15T01:31:55;7.32;;;0.80;;
67819;SDS011;54618;52.018;5.576;2024-01-15T01:34:21;8.32;;;0.73;;
67819;SDS011;54618;52.018;5.576;2024-01-15T01:36:47;9.70;;;0.88;;
67819;SDS011;54618;52.018;5.576;2024-01-15T01:39:12;6.20;;;0.80;;
67819;SDS011;54618;52.018;5.576;2024-01-15T01:41:38;9.95;;;1.23;;
67819;SDS011;54618;52.018;5.576;2024-01-15T01:44:05;5.65;;;0.70;;
67819;SDS011;54618;52.018;5.576;2024-01-15T01:46:30;6.80;;;0.88;;
67819;SDS011;54618;52.018;5.576;2024-01-15T01:48:56;8.93;;;1.13;;
67819;SDS011;54618;52.018;5.576;2024-01-15T01:51:25;4.28;;;0.75;;
67819;SDS011;54618;52.018;5.576;2024-01-15T01:53:51;5.05;;;0.70;;
67819;SDS011;54618;52.018;5.576;2024-01-15T01:56:20;3.83;;;1.23;;
67819;SDS011;54618;52.018;5.576;2024-01-15T01:58:46;8.05;;;0.85;;
67819;SDS011;54618;52.018;5.576;2024-01-15T02:01:13;7.00;;;0.88;;
67819;SDS011;54618;52.018;5.576;2024-01-15T02:03:40;3.10;;;0.43;;
67819;SDS011;54618;52.018;5.576;2024-01-15T02:06:06;7.55;;;1.13;;
67819;SDS011;54618;52.018;5.576;2024-01-15T02:08:33;8.25;;;0.90;;
67819;SDS011;54618;52.018;5.576;2024-01-15T02:10:59;7.70;;;0.63;;
67819;SDS011;54618;52.018;5.576;2024-01-15T02:13:25;9.45;;;1.10;;
67819;SDS011;54618;52.018;5.576;2024-01-15T02:15:51;9.40;;;0.80;;
67819;SDS011;54618;52.018;5.576;2024-01-15T02:18:16;10.50;;;1.25;;
67819;SDS011;54618;52.018;5.576;2024-01-15T02:20:42;4.07;;;0.70;;
67819;SDS011;54618;52.018;5.576;2024-01-15T02:23:10;7.00;;;0.80;;
67819;SDS011;54618;52.018;5.576;2024-01-15T02:25:40;11.07;;;0.73;;
67819;SDS011;54618;52.018;5.576;2024-01-15T02:28:11;4.93;;;0.95;;
67819;SDS011;54618;52.018;5.576;2024-01-15T02:30:40;5.35;;;0.63;;
67819;SDS011;54618;52.018;5.576;2024-01-15T02:33:07;4.80;;;1.00;;
67819;SDS011;54618;52.018;5.576;2024-01-15T02:35:33;9.40;;;0.68;;
67819;SDS011;54618;52.018;5.576;2024-01-15T02:38:01;3.97;;;0.63;;
67819;SDS011;54618;52.018;5.576;2024-01-15T02:40:27;7.63;;;0.82;;
67819;SDS011;54618;52.018;5.576;2024-01-15T02:42:53;8.35;;;0.52;;
67819;SDS011;54618;52.018;5.576;2024-01-15T02:45:19;8.77;;;0.93;;
67819;SDS011;54618;52.018;5.576;2024-01-15T02:47:45;7.60;;;0.82;;
67819;SDS011;54618;52.018;5.576;2024-01-15T02:50:10;5.45;;;0.65;;
67819;SDS011;54618;52.018;5.576;2024-01-15T02:52:36;7.43;;;0.80;;
67819;SDS011;54618;52.018;5.576;2024-01-15T02:55:01;3.63;;;0.65;;
67819;SDS011;54618;52.018;5.576;2024-01-15T02:57:27;5.22;;;0.57;;
67819;SDS011;54618;52.018;5.576;2024-01-15T02:59:56;4.55;;;0.70;;
67819;SDS011;54618;52.018;5.576;2024-01-15T03:02:21;8.35;;;0.68;;
67819;SDS011;54618;52.018;5.576;2024-01-15T03:04:47;5.18;;;0.85;;
67819;SDS011;54618;52.018;5.576;2024-01-15T03:07:13;3.05;;;0.45;;
67819;SDS011;54618;52.018;5.576;2024-01-15T03:09:38;2.88;;;0.57;;
67819;SDS011;54618;52.018;5.576;2024-01-15T03:12:04;5.32;;;0.68;;
67819;SDS011;54618;52.018;5.576;2024-01-15T03:14:30;6.78;;;0.75;;
67819;SDS011;54618;52.018;5.576;2024-01-15T03:16:56;4.22;;;0.60;;
67819;SDS011;54618;52.018;5.576;2024-01-15T03:19:22;3.67;;;0.80;;
67819;SDS011;54618;52.018;5.576;2024-01-15T03:21:50;4.28;;;0.40;;
67819;SDS011;54618;52.018;5.576;2024-01-15T03:24:16;5.55;;;0.77;;
67819;SDS011;54618;52.018;5.576;2024-01-15T03:26:41;7.60;;;0.68;;
67819;SDS011;54618;52.018;5.576;2024-01-15T03:29:07;4.25;;;0.88;;
67819;SDS011;54618;52.018;5.576;2024-01-15T03:31:32;3.65;;;0.63;;
67819;SDS011;54618;52.018;5.576;2024-01-15T03:33:58;5.47;;;0.70;;
67819;SDS011;54618;52.018;5.576;2024-01-15T03:36:24;3.97;;;0.40;;
67819;SDS011;54618;52.018;5.576;2024-01-15T03:38:49;5.20;;;1.05;;
67819;SDS011;54618;52.018;5.576;2024-01-15T03:41:15;9.75;;;0.98;;
67819;SDS011;54618;52.018;5.576;2024-01-15T03:43:41;5.40;;;0.70;;
67819;SDS011;54618;52.018;5.576;2024-01-15T03:46:06;6.35;;;0.55;;
67819;SDS011;54618;52.018;5.576;2024-01-15T03:48:32;3.53;;;0.45;;
67819;SDS011;54618;52.018;5.576;2024-01-15T03:50:58;3.55;;;0.60;;
67819;SDS011;54618;52.018;5.576;2024-01-15T03:53:23;3.97;;;0.70;;
67819;SDS011;54618;52.018;5.576;2024-01-15T03:55:49;5.75;;;0.60;;
67819;SDS011;54618;52.018;5.576;2024-01-15T03:58:15;2.85;;;0.45;;
67819;SDS011;54618;52.018;5.576;2024-01-15T04:00:41;10.93;;;0.77;;
67819;SDS011;54618;52.018;5.576;2024-01-15T04:03:07;2.22;;;0.82;;
67819;SDS011;54618;52.018;5.576;2024-01-15T04:05:33;6.38;;;1.05;;
67819;SDS011;54618;52.018;5.576;2024-01-15T04:07:59;3.22;;;0.43;;
67819;SDS011;54618;52.018;5.576;2024-01-15T04:10:24;5.30;;;0.77;;
67819;SDS011;54618;52.018;5.576;2024-01-15T04:12:50;1.65;;;0.55;;
67819;SDS011;54618;52.018;5.576;2024-01-15T04:15:16;3.70;;;0.50;;
67819;SDS011;54618;52.018;5.576;2024-01-15T04:17:41;8.57;;;0.75;;
67819;SDS011;54618;52.018;5.576;2024-01-15T04:20:07;6.20;;;0.75;;
67819;SDS011;54618;52.018;5.576;2024-01-15T04:22:35;6.18;;;0.60;;
67819;SDS011;54618;52.018;5.576;2024-01-15T04:25:01;4.90;;;0.55;;
67819;SDS011;54618;52.018;5.576;2024-01-15T04:27:27;5.20;;;0.85;;
67819;SDS011;54618;52.018;5.576;2024-01-15T04:29:56;2.25;;;0.43;;
67819;SDS011;54618;52.018;5.576;2024-01-15T04:32:21;6.75;;;0.82;;
67819;SDS011;54618;52.018;5.576;2024-01-15T04:34:47;1.67;;;0.40;;
67819;SDS011;54618;52.018;5.576;2024-01-15T04:37:15;3.97;;;0.57;;
67819;SDS011;54618;52.018;5.576;2024-01-15T04:39:41;3.72;;;0.70;;
67819;SDS011;54618;52.018;5.576;2024-01-15T04:42:07;3.50;;;0.70;;
67819;SDS011;54618;52.018;5.576;2024-01-15T04:44:32;5.22;;;0.63;;
67819;SDS011;54618;52.018;5.576;2024-01-15T04:46:58;9.20;;;0.80;;
67819;SDS011;54618;52.018;5.576;2024-01-15T04:49:24;5.22;;;0.63;;
67819;SDS011;54618;52.018;5.576;2024-01-15T04:51:52;7.15;;;0.65;;
67819;SDS011;54618;52.018;5.576;2024-01-15T04:54:17;3.63;;;0.60;;
67819;SDS011;54618;52.018;5.576;2024-01-15T04:56:44;4.43;;;0.57;;
67819;SDS011;54618;52.018;5.576;2024-01-15T04:59:10;6.28;;;0.60;;
67819;SDS011;54618;52.018;5.576;2024-01-15T05:01:36;3.40;;;0.55;;
67819;SDS011;54618;52.018;5.576;2024-01-15T05:04:01;6.47;;;0.80;;
67819;SDS011;54618;52.018;5.576;2024-01-15T05:06:27;7.63;;;0.60;;
67819;SDS011;54618;52.018;5.576;2024-01-15T05:08:56;5.40;;;0.50;;
67819;SDS011;54618;52.018;5.576;2024-01-15T05:11:22;6.95;;;0.80;;
67819;SDS011;54618;52.018;5.576;2024-01-15T05:13:48;4.72;;;0.60;;
67819;SDS011;54618;52.018;5.576;2024-01-15T05:16:13;4.97;;;0.60;;
67819;SDS011;54618;52.018;5.576;2024-01-15T05:18:39;3.55;;;0.52;;
67819;SDS011;54618;52.018;5.576;2024-01-15T05:21:04;2.08;;;0.32;;
67819;SDS011;54618;52.018;5.576;2024-01-15T05:23:33;3.20;;;0.88;;
67819;SDS011;54618;52.018;5.576;2024-01-15T05:25:59;1.23;;;0.20;;
67819;SDS011;54618;52.018;5.576;2024-01-15T05:28:25;3.45;;;0.60;;
67819;SDS011;54618;52.018;5.576;2024-01-15T05:30:50;2.58;;;0.50;;
67819;SDS011;54618;52.018;5.576;2024-01-15T05:33:17;2.70;;;0.50;;
67819;SDS011;54618;52.018;5.576;2024-01-15T05:35:42;6.22;;;0.82;;
67819;SDS011;54618;52.018;5.576;2024-01-15T05:38:08;6.15;;;0.77;;
67819;SDS011;54618;52.018;5.576;2024-01-15T05:40:34;5.22;;;0.82;;
67819;SDS011;54618;52.018;5.576;2024-01-15T05:42:59;5.65;;;1.30;;
67819;SDS011;54618;52.018;5.576;2024-01-15T05:45:29;2.38;;;0.77;;
67819;SDS011;54618;52.018;5.576;2024-01-15T05:47:55;6.20;;;0.85;;
67819;SDS011;54618;52.018;5.576;2024-01-15T05:50:21;3.30;;;0.85;;
67819;SDS011;54618;52.018;5.576;2024-01-15T05:52:47;3.17;;;0.60;;
67819;SDS011;54618;52.018;5.576;2024-01-15T05:55:13;7.53;;;0.88;;
67819;SDS011;54618;52.018;5.576;2024-01-15T05:57:38;3.13;;;0.80;;
67819;SDS011;54618;52.018;5.576;2024-01-15T06:00:04;4.97;;;0.70;;
67819;SDS011;54618;52.018;5.576;2024-01-15T06:02:30;4.30;;;0.95;;
67819;SDS011;54618;52.018;5.576;2024-01-15T06:04:56;7.05;;;0.75;;
67819;SDS011;54618;52.018;5.576;2024-01-15T06:07:22;2.53;;;0.90;;
67819;SDS011;54618;52.018;5.576;2024-01-15T06:09:48;2.83;;;0.77;;
67819;SDS011;54618;52.018;5.576;2024-01-15T06:12:14;2.67;;;0.77;;
67819;SDS011;54618;52.018;5.576;2024-01-15T06:14:40;4.35;;;0.90;;
67819;SDS011;54618;52.018;5.576;2024-01-15T06:17:06;4.47;;;1.17;;
67819;SDS011;54618;52.018;5.576;2024-01-15T06:19:32;4.88;;;0.80;;
67819;SDS011;54618;52.018;5.576;2024-01-15T06:21:57;2.78;;;0.90;;
67819;SDS011;54618;52.018;5.576;2024-01-15T06:24:26;5.70;;;0.80;;
67819;SDS011;54618;52.018;5.576;2024-01-15T06:26:52;4.72;;;0.70;;
67819;SDS011;54618;52.018;5.576;2024-01-15T06:29:18;6.20;;;1.25;;
67819;SDS011;54618;52.018;5.576;2024-01-15T06:31:43;9.25;;;1.08;;
67819;SDS011;54618;52.018;5.576;2024-01-15T06:34:09;4.88;;;0.90;;
67819;SDS011;54618;52.018;5.576;2024-01-15T06:36:34;4.65;;;1.02;;
67819;SDS011;54618;52.018;5.576;2024-01-15T06:39:00;4.72;;;1.23;;
67819;SDS011;54618;52.018;5.576;2024-01-15T06:41:26;3.88;;;1.10;;
67819;SDS011;54618;52.018;5.576;2024-01-15T06:43:51;7.50;;;1.10;;
67819;SDS011;54618;52.018;5.576;2024-01-15T06:46:20;5.57;;;1.55;;
67819;SDS011;54618;52.018;5.576;2024-01-15T06:48:46;3.00;;;1.13;;
67819;SDS011;54618;52.018;5.576;2024-01-15T06:51:12;3.15;;;1.50;;
67819;SDS011;54618;52.018;5.576;2024-01-15T06:53:38;7.90;;;1.65;;
67819;SDS011;54618;52.018;5.576;2024-01-15T06:56:03;3.28;;;0.88;;
67819;SDS011;54618;52.018;5.576;2024-01-15T06:58:30;2.17;;;1.00;;
67819;SDS011;54618;52.018;5.576;2024-01-15T07:00:56;2.55;;;1.20;;
67819;SDS011;54618;52.018;5.576;2024-01-15T07:03:22;4.60;;;1.00;;
67819;SDS011;54618;52.018;5.576;2024-01-15T07:05:49;2.25;;;1.10;;
67819;SDS011;54618;52.018;5.576;2024-01-15T07:08:15;2.38;;;1.00;;
67819;SDS011;54618;52.018;5.576;2024-01-15T07:10:40;3.20;;;0.95;;
67819;SDS011;54618;52.018;5.576;2024-01-15T07:13:06;2.30;;;1.00;;
67819;SDS011;54618;52.018;5.576;2024-01-15T07:15:32;2.47;;;1.00;;
67819;SDS011;54618;52.018;5.576;2024-01-15T07:17:57;1.90;;;0.82;;
67819;SDS011;54618;52.018;5.576;2024-01-15T07:20:23;2.17;;;1.00;;
67819;SDS011;54618;52.018;5.576;2024-01-15T07:22:51;1.90;;;0.90;;
67819;SDS011;54618;52.018;5.576;2024-01-15T07:25:17;2.35;;;0.90;;
67819;SDS011;54618;52.018;5.576;2024-01-15T07:27:42;2.72;;;0.90;;
67819;SDS011;54618;52.018;5.576;2024-01-15T07:30:10;2.22;;;1.00;;
67819;SDS011;54618;52.018;5.576;2024-01-15T07:32:36;3.42;;;1.00;;
67819;SDS011;54618;52.018;5.576;2024-01-15T07:35:02;2.03;;;1.00;;
67819;SDS011;54618;52.018;5.576;2024-01-15T07:37:28;4.15;;;1.58;;
67819;SDS011;54618;52.018;5.576;2024-01-15T07:39:57;2.97;;;1.40;;
67819;SDS011;54618;52.018;5.576;2024-01-15T07:42:23;4.88;;;1.60;;
67819;SDS011;54618;52.018;5.576;2024-01-15T07:44:51;3.13;;;1.40;;
67819;SDS011;54618;52.018;5.576;2024-01-15T07:47:17;3.47;;;1.10;;
67819;SDS011;54618;52.018;5.576;2024-01-15T07:49:42;2.40;;;1.02;;
67819;SDS011;54618;52.018;5.576;2024-01-15T07:52:09;2.70;;;1.10;;
67819;SDS011;54618;52.018;5.576;2024-01-15T07:54:36;4.45;;;1.45;;
67819;SDS011;54618;52.018;5.576;2024-01-15T07:57:02;4.90;;;1.60;;
67819;SDS011;54618;52.018;5.576;2024-01-15T07:59:31;2.78;;;1.15;;
67819;SDS011;54618;52.018;5.576;2024-01-15T08:01:58;5.63;;;1.50;;
67819;SDS011;54618;52.018;5.576;2024-01-15T08:04:27;2.92;;;1.25;;
67819;SDS011;54618;52.018;5.576;2024-01-15T08:06:53;3.28;;;1.20;;
67819;SDS011;54618;52.018;5.576;2024-01-15T08:09:22;7.75;;;1.38;;
67819;SDS011;54618;52.018;5.576;2024-01-15T08:11:47;5.35;;;1.30;;
67819;SDS011;54618;52.018;5.576;2024-01-15T08:14:14;3.90;;;1.30;;
67819;SDS011;54618;52.018;5.576;2024-01-15T08:16:40;7.47;;;1.70;;
67819;SDS011;54618;52.018;5.576;2024-01-15T08:19:05;4.68;;;1.50;;
67819;SDS011;54618;52.018;5.576;2024-01-15T08:21:31;6.20;;;1.83;;
67819;SDS011;54618;52.018;5.576;2024-01-15T08:24:00;4.20;;;1.60;;
67819;SDS011;54618;52.018;5.576;2024-01-15T08:26:27;3.25;;;1.63;;
67819;SDS011;54618;52.018;5.576;2024-01-15T08:28:56;5.80;;;1.92;;
67819;SDS011;54618;52.018;5.576;2024-01-15T08:31:22;4.68;;;1.67;;
67819;SDS011;54618;52.018;5.576;2024-01-15T08:33:47;6.07;;;2.00;;
67819;SDS011;54618;52.018;5.576;2024-01-15T08:36:13;3.50;;;1.52;;
67819;SDS011;54618;52.018;5.576;2024-01-15T08:38:39;5.57;;;1.88;;
67819;SDS011;54618;52.018;5.576;2024-01-15T08:41:04;6.63;;;1.80;;
67819;SDS011;54618;52.018;5.576;2024-01-15T08:43:30;6.32;;;2.20;;
67819;SDS011;54618;52.018;5.576;2024-01-15T08:45:56;9.73;;;1.90;;
67819;SDS011;54618;52.018;5.576;2024-01-15T08:48:22;5.18;;;1.30;;
67819;SDS011;54618;52.018;5.576;2024-01-15T08:50:52;4.05;;;1.73;;
67819;SDS011;54618;52.018;5.576;2024-01-15T08:53:21;8.98;;;1.75;;
67819;SDS011;54618;52.018;5.576;2024-01-15T08:55:47;6.18;;;1.90;;
67819;SDS011;54618;52.018;5.576;2024-01-15T08:58:14;5.18;;;1.60;;
67819;SDS011;54618;52.018;5.576;2024-01-15T09:00:39;6.72;;;1.90;;
67819;SDS011;54618;52.018;5.576;2024-01-15T09:03:05;5.65;;;1.67;;
67819;SDS011;54618;52.018;5.576;2024-01-15T09:05:31;5.53;;;2.05;;
67819;SDS011;54618;52.018;5.576;2024-01-15T09:07:57;7.07;;;1.85;;
67819;SDS011;54618;52.018;5.576;2024-01-15T09:10:22;4.72;;;1.60;;
67819;SDS011;54618;52.018;5.576;2024-01-15T09:12:51;8.48;;;1.85;;
67819;SDS011;54618;52.018;5.576;2024-01-15T09:15:17;6.88;;;1.50;;
67819;SDS011;54618;52.018;5.576;2024-01-15T09:17:42;4.28;;;1.40;;
67819;SDS011;54618;52.018;5.576;2024-01-15T09:20:08;3.63;;;1.52;;
67819;SDS011;54618;52.018;5.576;2024-01-15T09:22:35;6.63;;;1.67;;
67819;SDS011;54618;52.018;5.576;2024-01-15T09:25:04;3.72;;;1.73;;
67819;SDS011;54618;52.018;5.576;2024-01-15T09:27:29;5.43;;;1.40;;
67819;SDS011;54618;52.018;5.576;2024-01-15T09:29:55;5.25;;;1.58;;
67819;SDS011;54618;52.018;5.576;2024-01-15T09:32:21;2.92;;;1.10;;
67819;SDS011;54618;52.018;5.576;2024-01-15T09:34:47;8.30;;;1.50;;
67819;SDS011;54618;52.018;5.576;2024-01-15T09:37:13;4.13;;;1.20;;
67819;SDS011;54618;52.018;5.576;2024-01-15T09:39:40;5.95;;;0.90;;
67819;SDS011;54618;52.018;5.576;2024-01-15T09:42:05;3.67;;;0.80;;
67819;SDS011;54618;52.018;5.576;2024-01-15T09:44:32;1.50;;;0.70;;
67819;SDS011;54618;52.018;5.576;2024-01-15T09:46:58;2.80;;;0.70;;
67819;SDS011;54618;52.018;5.576;2024-01-15T09:49:24;3.83;;;0.70;;
67819;SDS011;54618;52.018;5.576;2024-01-15T09:51:50;2.45;;;0.70;;
67819;SDS011;54618;52.018;5.576;2024-01-15T09:54:16;3.15;;;0.88;;
67819;SDS011;54618;52.018;5.576;2024-01-15T09:56:45;6.15;;;0.70;;
67819;SDS011;54618;52.018;5.576;2024-01-15T09:59:18;7.80;;;0.90;;
67819;SDS011;54618;52.018;5.576;2024-01-15T10:01:44;2.83;;;0.80;;
67819;SDS011;54618;52.018;5.576;2024-01-15T10:04:13;3.92;;;0.60;;
67819;SDS011;54618;52.018;5.576;2024-01-15T10:06:39;3.17;;;0.90;;
67819;SDS011;54618;52.018;5.576;2024-01-15T10:09:13;3.35;;;0.90;;
67819;SDS011;54618;52.018;5.576;2024-01-15T10:11:41;1.45;;;0.50;;
67819;SDS011;54618;52.018;5.576;2024-01-15T10:14:11;4.43;;;0.70;;
67819;SDS011;54618;52.018;5.576;2024-01-15T10:16:38;4.40;;;0.98;;
67819;SDS011;54618;52.018;5.576;2024-01-15T10:19:09;6.18;;;1.00;;
67819;SDS011;54618;52.018;5.576;2024-01-15T10:21:37;2.60;;;0.77;;
67819;SDS011;54618;52.018;5.576;2024-01-15T10:24:03;4.57;;;1.02;;
67819;SDS011;54618;52.018;5.576;2024-01-15T10:26:30;5.13;;;1.67;;
67819;SDS011;54618;52.018;5.576;2024-01-15T10:28:56;4.50;;;1.02;;
67819;SDS011;54618;52.018;5.576;2024-01-15T10:31:26;7.28;;;1.10;;
67819;SDS011;54618;52.018;5.576;2024-01-15T10:33:52;7.28;;;1.20;;
67819;SDS011;54618;52.018;5.576;2024-01-15T10:36:18;3.78;;;1.40;;
67819;SDS011;54618;52.018;5.576;2024-01-15T10:38:44;5.53;;;1.42;;
67819;SDS011;54618;52.018;5.576;2024-01-15T10:41:10;3.40;;;1.20;;
67819;SDS011;54618;52.018;5.576;2024-01-15T10:43:36;4.88;;;1.20;;
67819;SDS011;54618;52.018;5.576;2024-01-15T10:46:02;3.58;;;1.23;;
67819;SDS011;54618;52.018;5.576;2024-01-15T10:48:28;3.78;;;1.23;;
67819;SDS011;54618;52.018;5.576;2024-01-15T10:50:56;6.70;;;1.60;;
67819;SDS011;54618;52.018;5.576;2024-01-15T10:53:22;5.03;;;1.35;;
67819;SDS011;54618;52.018;5.576;2024-01-15T10:55:48;5.45;;;1.33;;
67819;SDS011;54618;52.018;5.576;2024-01-15T10:58:16;6.78;;;1.27;;
67819;SDS011;54618;52.018;5.576;2024-01-15T11:00:43;3.80;;;1.20;;
67819;SDS011;54618;52.018;5.576;2024-01-15T11:03:09;4.28;;;1.20;;
67819;SDS011;54618;52.018;5.576;2024-01-15T11:05:39;5.60;;;1.52;;
67819;SDS011;54618;52.018;5.576;2024-01-15T11:10:43;5.15;;;1.40;;
67819;SDS011;54618;52.018;5.576;2024-01-15T11:16:05;4.28;;;1.00;;
67819;SDS011;54618;52.018;5.576;2024-01-15T11:18:32;3.90;;;0.95;;
67819;SDS011;54618;52.018;5.576;2024-01-15T11:29:02;3.35;;;0.90;;
67819;SDS011;54618;52.018;5.576;2024-01-15T11:31:56;6.50;;;0.95;;
67819;SDS011;54618;52.018;5.576;2024-01-15T11:34:16;2.40;;;0.82;;
67819;SDS011;54618;52.018;5.576;2024-01-15T11:42:00;8.38;;;1.25;;
67819;SDS011;54618;52.018;5.576;2024-01-15T11:44:28;2.90;;;0.88;;
67819;SDS011;54618;52.018;5.576;2024-01-15T11:52:33;5.43;;;0.95;;
67819;SDS011;54618;52.018;5.576;2024-01-15T11:57:49;4.72;;;0.90;;
67819;SDS011;54618;52.018;5.576;2024-01-15T12:00:16;2.80;;;0.70;;
67819;SDS011;54618;52.018;5.576;2024-01-15T12:02:43;6.63;;;0.82;;
67819;SDS011;54618;52.018;5.576;2024-01-15T12:05:11;5.35;;;0.75;;
67819;SDS011;54618;52.018;5.576;2024-01-15T12:07:38;4.43;;;0.60;;
67819;SDS011;54618;52.018;5.576;2024-01-15T12:10:14;2.90;;;0.77;;
67819;SDS011;54618;52.018;5.576;2024-01-15T12:13:00;2.47;;;0.50;;
67819;SDS011;54618;52.018;5.576;2024-01-15T12:15:35;1.42;;;0.57;;
67819;SDS011;54618;52.018;5.576;2024-01-15T12:18:02;2.58;;;0.50;;
67819;SDS011;54618;52.018;5.576;2024-01-15T12:20:31;2.92;;;0.60;;
67819;SDS011;54618;52.018;5.576;2024-01-15T12:22:58;3.38;;;0.65;;
67819;SDS011;54618;52.018;5.576;2024-01-15T12:25:27;1.83;;;0.52;;
67819;SDS011;54618;52.018;5.576;2024-01-15T12:27:54;2.60;;;0.73;;
67819;SDS011;54618;52.018;5.576;2024-01-15T12:30:21;3.70;;;0.70;;
67819;SDS011;54618;52.018;5.576;2024-01-15T12:32:47;3.15;;;0.63;;
67819;SDS011;54618;52.018;5.576;2024-01-15T12:35:13;7.97;;;0.70;;
67819;SDS011;54618;52.018;5.576;2024-01-15T12:37:40;2.17;;;0.60;;
67819;SDS011;54618;52.018;5.576;2024-01-15T12:40:07;0.90;;;0.38;;
67819;SDS011;54618;52.018;5.576;2024-01-15T12:42:35;2.75;;;0.60;;
67819;SDS011;54618;52.018;5.576;2024-01-15T12:45:01;5.30;;;1.00;;
67819;SDS011;54618;52.018;5.576;2024-01-15T12:47:29;6.55;;;0.73;;
67819;SDS011;54618;52.018;5.576;2024-01-15T12:49:55;2.85;;;0.75;;
67819;SDS011;54618;52.018;5.576;2024-01-15T12:52:22;5.85;;;0.70;;
67819;SDS011;54618;52.018;5.576;2024-01-15T12:54:51;4.82;;;0.70;;
67819;SDS011;54618;52.018;5.576;2024-01-15T12:57:16;4.50;;;1.10;;
67819;SDS011;54618;52.018;5.576;2024-01-15T12:59:45;2.33;;;0.65;;
67819;SDS011;54618;52.018;5.576;2024-01-15T13:02:12;6.60;;;0.63;;
67819;SDS011;54618;52.018;5.576;2024-01-15T13:04:38;3.33;;;0.50;;
67819;SDS011;54618;52.018;5.576;2024-01-15T13:07:05;6.85;;;0.60;;
67819;SDS011;54618;52.018;5.576;2024-01-15T13:09:31;1.70;;;0.55;;
67819;SDS011;54618;52.018;5.576;2024-01-15T13:11:57;2.67;;;0.45;;
67819;SDS011;54618;52.018;5.576;2024-01-15T13:14:26;2.92;;;0.60;;
67819;SDS011;54618;52.018;5.576;2024-01-15T13:16:52;2.85;;;0.60;;
67819;SDS011;54618;52.018;5.576;2024-01-15T13:19:19;6.60;;;0.93;;
67819;SDS011;54618;52.018;5.576;2024-01-15T13:21:46;6.78;;;0.70;;
67819;SDS011;54618;52.018;5.576;2024-01-15T13:24:12;2.88;;;0.77;;
67819;SDS011;54618;52.018;5.576;2024-01-15T13:26:39;4.80;;;0.73;;
67819;SDS011;54618;52.018;5.576;2024-01-15T13:29:04;1.98;;;0.68;;
67819;SDS011;54618;52.018;5.576;2024-01-15T13:31:31;2.53;;;0.70;;
67819;SDS011;54618;52.018;5.576;2024-01-15T13:33:59;1.17;;;0.43;;
67819;SDS011;54618;52.018;5.576;2024-01-15T13:36:28;4.72;;;0.73;;
67819;SDS011;54618;52.018;5.576;2024-01-15T13:38:57;3.35;;;0.50;;
67819;SDS011;54618;52.018;5.576;2024-01-15T13:41:26;1.50;;;0.50;;
67819;SDS011;54618;52.018;5.576;2024-01-15T13:43:53;3.88;;;0.80;;
67819;SDS011;54618;52.018;5.576;2024-01-15T13:46:20;3.72;;;0.70;;
67819;SDS011;54618;52.018;5.576;2024-01-15T13:48:48;4.85;;;0.93;;
67819;SDS011;54618;52.018;5.576;2024-01-15T13:51:13;4.03;;;0.80;;
67819;SDS011;54618;52.018;5.576;2024-01-15T13:53:39;4.20;;;0.82;;
67819;SDS011;54618;52.018;5.576;2024-01-15T13:56:06;5.25;;;1.08;;
67819;SDS011;54618;52.018;5.576;2024-01-15T13:58:32;3.47;;;0.77;;
67819;SDS011;54618;52.018;5.576;2024-01-15T14:00:58;3.97;;;0.93;;
67819;SDS011;54618;52.018;5.576;2024-01-15T14:03:27;3.20;;;0.82;;
67819;SDS011;54618;52.018;5.576;2024-01-15T14:05:53;2.53;;;0.60;;
67819;SDS011;54618;52.018;5.576;2024-01-15T14:08:21;2.70;;;0.65;;
67819;SDS011;54618;52.018;5.576;2024-01-15T14:10:47;3.30;;;0.93;;
67819;SDS011;54618;52.018;5.576;2024-01-15T14:13:13;3.78;;;1.02;;
67819;SDS011;54618;52.018;5.576;2024-01-15T14:15:38;3.25;;;0.90;;
67819;SDS011;54618;52.018;5.576;2024-01-15T14:18:05;5.97;;;0.95;;
67819;SDS011;54618;52.018;5.576;2024-01-15T14:20:30;4.28;;;0.75;;
67819;SDS011;54618;52.018;5.576;2024-01-15T14:22:56;1.98;;;0.57;;
67819;SDS011;54618;52.018;5.576;2024-01-15T14:25:21;2.95;;;0.90;;
67819;SDS011;54618;52.018;5.576;2024-01-15T14:27:48;3.42;;;0.85;;
67819;SDS011;54618;52.018;5.576;2024-01-15T14:30:13;6.63;;;1.23;;
67819;SDS011;54618;52.018;5.576;2024-01-15T14:32:41;4.25;;;1.10;;
67819;SDS011;54618;52.018;5.576;2024-01-15T14:35:07;5.43;;;1.00;;
67819;SDS011;54618;52.018;5.576;2024-01-15T14:37:35;2.67;;;1.00;;
67819;SDS011;54618;52.018;5.576;2024-01-15T14:40:05;4.95;;;1.00;;
67819;SDS011;54618;52.018;5.576;2024-01-15T14:42:32;5.25;;;1.33;;
67819;SDS011;54618;52.018;5.576;2024-01-15T14:44:59;6.32;;;0.90;;
67819;SDS011;54618;52.018;5.576;2024-01-15T14:47:28;4.57;;;0.85;;
67819;SDS011;54618;52.018;5.576;2024-01-15T14:49:56;4.95;;;0.90;;
67819;SDS011;54618;52.018;5.576;2024-01-15T14:52:22;5.63;;;0.82;;
67819;SDS011;54618;52.018;5.576;2024-01-15T14:54:48;6.10;;;0.70;;
67819;SDS011;54618;52.018;5.576;2024-01-15T14:57:14;6.53;;;0.80;;
67819;SDS011;54618;52.018;5.576;2024-01-15T14:59:40;5.03;;;0.95;;
67819;SDS011;54618;52.018;5.576;2024-01-15T15:02:06;5.53;;;1.00;;
67819;SDS011;54618;52.018;5.576;2024-01-15T15:04:31;8.20;;;1.23;;
67819;SDS011;54618;52.018;5.576;2024-01-15T15:06:57;6.90;;;0.90;;
67819;SDS011;54618;52.018;5.576;2024-01-15T15:09:23;7.50;;;1.17;;
67819;SDS011;54618;52.018;5.576;2024-01-15T15:11:52;7.55;;;1.15;;